Aérodrome :
LOGIN :

S'inscrire | Disclaimer

   EN    FR    IT 

 










Légende :    VFR   VFR Marginal   IFR   IFR Intensif   IFR Très Intensif
Visi : 
Plafond : 
>= 8 km
>= 3000ft
5 à 8 km
1000 à 3000 ft
1500m à 5 km
500 à 1000 ft
800 à 1500m
200 à 500 ft
< 800m
< 200 ft
Symboles :   Orages  Brouillard  Fortes neiges  Fortes précipitations  Vent > 20 kt
SIGMETs :   Divers  Orages  Givrage  Turbulence  Onde Orograph.  Cendres Volcan.







- Altitude de l'aérodrome : 218 ft
- Code IATA : LBG
- Voir les cartes d'approche


LFPB - Paris / Le Bourget

DERNIER METAR :
  • 172300Z AUTO 05002KT 7000 NSC 01/M00 Q1025 TEMPO 4000 BR

METARs EXPIRÉS :
  • 172230Z AUTO 05001KT 8000 NSC 02/01 Q1025 TEMPO 4000 BR
  • 172200Z AUTO 05002KT 9000 NSC 02/00 Q1025 TEMPO 4000 BR
  • 172130Z AUTO 03002KT 9000 NSC 02/01 Q1025 TEMPO 4000 BR
  • 172100Z AUTO 01003KT CAVOK 02/01 Q1025 NOSIG
  • 172030Z AUTO 04003KT CAVOK 03/01 Q1024 NOSIG

TAF TAF LFPB
Valide du 17 à 18h jusqu'au 18 à 18h UTC


171700Z 1718/1818 36003KT CAVOK
PROB40
TEMPO 1723/1804 4000 BR
BECMG 1802/1804 13003KT
BECMG 1804/1806 2000 BR
PROB40
TEMPO 1805/1810 0800 BCFG BKN002
BECMG 1811/1813 CAVOK
ATIS : +33 1 48 62 43 92
Pas de NOTAMs connus pour ce terrain.



MET'MAP, la Météo Aéronautique d'un coup d'oeil ! - Copyright ORBIFLY Décembre 2007 - Disclaimer

ORBIFLY MET'MAP TEAM :

Programmation & Développement : Alexandra Zaïnal
Conception & Développement : Baudouin d'Aumeries
Co-Programmation & Développement : Marc-Olivier Méhu
Soutien technique & logistique : Manuel Goepfert

Contact : metmap@orbifly.com




SOURCES & CREDITS :

   NOAA